Time;durP1;ratioP1;P1;durP2;ratioP2;P2;SDS_P1;SDS_P2;PMS_P1;PMS_P2;Temp;Humidity;BMP_temperature;BMP_pressure;BME280_temperature;BME280_humidity;BME280_pressure;Samples;Min_cycle;Max_cycle;Signal;HPM_P1;HPM_P2
2021/07/05 00:00:36;;;;;;;0.70;0.63;;;14.10;99.90;;;-143.50;100.00;58913.53;4953830;28;1147385;-73
2021/07/05 00:03:03;;;;;;;0.70;0.60;;;14.20;99.90;;;-143.50;100.00;58913.53;4993897;28;20276;-73
2021/07/05 00:05:32;;;;;;;0.70;0.70;;;14.20;99.90;;;-143.50;100.00;58913.53;4993404;28;20428;-73
2021/07/05 00:08:01;;;;;;;0.70;0.63;;;14.30;99.90;;;-143.50;100.00;58913.53;4995460;28;20508;-73
2021/07/05 00:10:29;;;;;;;0.70;0.60;;;14.30;99.90;;;-143.50;100.00;58913.53;4975904;28;20897;-73
2021/07/05 00:12:58;;;;;;;0.70;0.70;;;14.30;99.90;;;-143.50;100.00;58913.53;4974846;28;20504;-73
2021/07/05 00:15:28;;;;;;;0.70;0.60;;;14.40;99.90;;;-143.50;100.00;58913.53;4988888;28;20438;-73
2021/07/05 00:17:58;;;;;;;0.70;0.70;;;14.40;99.90;;;-143.50;100.00;58913.53;4994697;28;20434;-73
2021/07/05 00:20:27;;;;;;;0.70;0.70;;;14.50;99.90;;;-143.50;100.00;58913.53;4993626;28;20830;-73
2021/07/05 00:22:56;;;;;;;0.70;0.70;;;14.50;99.90;;;-143.50;100.00;58913.53;4992365;28;20573;-73
2021/07/05 00:25:24;;;;;;;0.80;0.70;;;14.50;99.90;;;-143.50;100.00;58913.53;4992439;28;20463;-73
2021/07/05 00:27:52;;;;;;;0.70;0.63;;;14.40;99.90;;;-143.50;100.00;58913.53;4994465;28;21003;-73
2021/07/05 00:30:21;;;;;;;0.70;0.60;;;14.40;99.90;;;-143.50;100.00;58913.53;4994455;28;20473;-73
2021/07/05 00:32:50;;;;;;;0.70;0.70;;;14.40;99.90;;;-143.50;100.00;58913.53;4994581;28;20445;-73
2021/07/05 00:35:22;;;;;;;0.70;0.70;;;14.40;99.90;;;-143.50;100.00;58913.53;4994605;28;20819;-73
2021/07/05 00:37:51;;;;;;;0.70;0.70;;;14.40;99.90;;;-143.50;100.00;58913.53;4993435;28;20985;-73
2021/07/05 00:40:19;;;;;;;0.70;0.60;;;14.40;99.90;;;-143.50;100.00;58913.53;5009336;28;20534;-73
2021/07/05 00:42:49;;;;;;;0.70;0.60;;;14.50;99.90;;;-143.50;100.00;58913.53;4994168;28;20494;-73
2021/07/05 00:45:19;;;;;;;0.70;0.70;;;14.50;99.90;;;-143.50;100.00;58913.53;4993556;28;20441;-73
2021/07/05 00:47:46;;;;;;;0.70;0.70;;;14.50;99.90;;;-143.50;100.00;58913.53;4992784;28;20430;-73
2021/07/05 00:50:16;;;;;;;0.80;0.70;;;14.50;99.90;;;-143.50;100.00;58913.53;4994702;28;20425;-73
2021/07/05 00:52:48;;;;;;;0.70;0.60;;;14.50;99.90;;;-143.50;100.00;58913.53;4994104;28;20524;-73
2021/07/05 00:55:16;;;;;;;0.70;0.60;;;14.40;99.90;;;-143.50;100.00;58913.53;4992717;28;20430;-73
2021/07/05 00:57:43;;;;;;;0.70;0.60;;;14.40;99.90;;;-143.50;100.00;58913.53;4991556;28;20888;-73
2021/07/05 01:00:15;;;;;;;0.70;0.60;;;14.40;99.90;;;-143.50;100.00;58913.53;4994700;28;20489;-73
2021/07/05 01:02:45;;;;;;;0.70;0.60;;;14.40;99.90;;;-143.50;100.00;58913.53;4993164;28;20475;-73
2021/07/05 01:05:15;;;;;;;0.70;0.70;;;14.50;99.90;;;-143.50;100.00;58913.53;4994328;28;20927;-73
2021/07/05 01:07:45;;;;;;;0.70;0.70;;;14.60;99.90;;;-143.50;100.00;58913.53;4994459;28;20465;-73
2021/07/05 01:10:17;;;;;;;0.70;0.63;;;14.80;99.90;;;-143.50;100.00;58913.53;4993930;28;20424;-73
2021/07/05 01:12:45;;;;;;;0.70;0.63;;;14.80;99.90;;;-143.50;100.00;58913.53;4976410;28;20458;-73
2021/07/05 01:15:18;;;;;;;0.70;0.70;;;14.90;99.90;;;-143.50;100.00;58913.53;4992335;28;20468;-73
2021/07/05 01:17:47;;;;;;;0.70;0.60;;;14.90;99.90;;;-143.50;100.00;58913.53;4993792;28;20439;-73
2021/07/05 01:20:18;;;;;;;0.70;0.63;;;14.80;99.90;;;-143.50;100.00;58913.53;4992889;28;20413;-73
2021/07/05 01:22:47;;;;;;;0.70;0.60;;;14.80;99.90;;;-143.50;100.00;58913.53;4992592;28;20544;-73
2021/07/05 01:25:20;;;;;;;0.70;0.70;;;14.80;99.90;;;-143.50;100.00;58913.53;4993936;28;20443;-73
2021/07/05 01:27:50;;;;;;;0.70;0.70;;;14.90;99.90;;;-143.50;100.00;58913.53;4993723;28;20436;-73
2021/07/05 01:30:21;;;;;;;0.70;0.67;;;14.80;99.90;;;-143.50;100.00;58913.53;4990736;28;20444;-73
2021/07/05 01:32:53;;;;;;;0.70;0.60;;;14.90;99.90;;;-143.50;100.00;58913.53;4991665;28;20473;-73
2021/07/05 01:35:21;;;;;;;0.70;0.70;;;14.90;99.90;;;-143.50;100.00;58913.53;4992831;28;20447;-73
2021/07/05 01:37:50;;;;;;;0.70;0.60;;;14.90;99.90;;;-143.50;100.00;58913.53;4993154;28;20477;-73
2021/07/05 01:40:18;;;;;;;0.70;0.70;;;14.90;99.90;;;-143.50;100.00;58913.53;4994053;28;20508;-73
2021/07/05 01:42:51;;;;;;;0.70;0.70;;;14.90;99.90;;;-143.50;100.00;58913.53;5009161;28;20518;-73
2021/07/05 01:45:21;;;;;;;0.70;0.63;;;14.90;99.90;;;-143.50;100.00;58913.53;4993842;28;20424;-73
2021/07/05 01:47:49;;;;;;;0.80;0.70;;;14.90;99.90;;;-143.50;100.00;58913.53;4991773;28;20495;-73
2021/07/05 01:50:17;;;;;;;0.70;0.70;;;15.00;99.90;;;-143.50;100.00;58913.53;4992554;28;20512;-73
2021/07/05 01:53:05;;;;;;;0.80;0.80;;;15.00;99.90;;;-143.50;100.00;58913.53;4993508;28;20812;-73
2021/07/05 01:55:34;;;;;;;0.70;0.60;;;15.10;99.90;;;-143.50;100.00;58913.53;4993837;28;20545;-73
2021/07/05 01:58:05;;;;;;;0.70;0.60;;;15.10;99.90;;;-143.50;100.00;58913.53;4993897;28;20439;-73
2021/07/05 02:00:36;;;;;;;0.70;0.70;;;15.20;99.90;;;-143.50;100.00;58913.53;4992836;28;20461;-73
2021/07/05 02:03:05;;;;;;;0.70;0.60;;;15.20;99.90;;;-143.50;100.00;58913.53;4992895;28;20470;-73
2021/07/05 02:05:33;;;;;;;0.70;0.70;;;15.20;99.90;;;-143.50;100.00;58913.53;4990547;28;20535;-73
2021/07/05 02:08:01;;;;;;;0.70;0.60;;;15.20;99.90;;;-143.50;100.00;58913.53;5008820;28;20454;-73
2021/07/05 02:10:34;;;;;;;0.70;0.60;;;15.20;99.90;;;-143.50;100.00;58913.53;4992317;28;20535;-73
2021/07/05 02:13:06;;;;;;;0.80;0.73;;;15.20;99.90;;;-143.50;100.00;58913.53;4993867;28;20464;-73
2021/07/05 02:15:33;;;;;;;0.70;0.70;;;15.20;99.90;;;-143.50;100.00;58913.53;4992684;28;20453;-73
2021/07/05 02:18:02;;;;;;;0.70;0.60;;;15.20;99.90;;;-143.50;100.00;58913.53;5004772;28;20537;-73
2021/07/05 02:20:29;;;;;;;0.70;0.60;;;15.20;99.90;;;-143.50;100.00;58913.53;4991655;28;20469;-73
2021/07/05 02:22:59;;;;;;;0.77;0.73;;;15.20;99.90;;;-143.50;100.00;58913.53;4992736;28;20479;-73
2021/07/05 02:25:30;;;;;;;0.70;0.60;;;15.20;99.90;;;-143.50;100.00;58913.53;4992172;28;20488;-72
2021/07/05 02:28:03;;;;;;;0.70;0.60;;;15.20;99.90;;;-143.50;100.00;58913.53;4993577;28;20467;-73
2021/07/05 02:30:32;;;;;;;0.70;0.70;;;15.20;99.90;;;-143.50;100.00;58913.53;4993283;28;20833;-73
2021/07/05 02:33:00;;;;;;;0.70;0.60;;;15.10;99.90;;;-143.50;100.00;58913.53;4991777;28;20444;-73
2021/07/05 02:35:30;;;;;;;0.70;0.60;;;15.20;99.90;;;-143.50;100.00;58913.53;4992975;28;20454;-73
2021/07/05 02:37:59;;;;;;;0.70;0.60;;;15.20;99.90;;;-143.50;100.00;58913.53;5024538;28;20479;-73
2021/07/05 02:40:30;;;;;;;0.70;0.63;;;15.20;99.90;;;-143.50;100.00;58913.53;4993326;28;20984;-73
2021/07/05 02:43:00;;;;;;;0.70;0.60;;;15.30;99.90;;;-143.50;100.00;58913.53;5025010;28;20468;-73
2021/07/05 02:45:29;;;;;;;0.70;0.60;;;15.40;99.90;;;-143.50;100.00;58913.53;4992262;28;20474;-73
2021/07/05 02:47:59;;;;;;;0.70;0.70;;;15.40;99.90;;;-143.50;100.00;58913.53;4990624;28;20454;-73
2021/07/05 02:50:28;;;;;;;0.70;0.60;;;15.40;99.90;;;-143.50;100.00;58913.53;4975715;28;20972;-73
2021/07/05 02:52:58;;;;;;;0.70;0.60;;;15.40;99.90;;;-143.50;100.00;58913.53;4993269;28;20443;-73
2021/07/05 02:55:26;;;;;;;0.70;0.70;;;15.40;99.90;;;-143.50;100.00;58913.53;4995200;28;20417;-73
2021/07/05 02:57:54;;;;;;;0.70;0.60;;;15.40;99.90;;;-143.50;100.00;58913.53;4995574;28;20458;-73
2021/07/05 03:00:29;;;;;;;0.70;0.60;;;15.50;99.90;;;-143.50;100.00;58913.53;4994072;28;20469;-73
2021/07/05 03:02:58;;;;;;;0.70;0.60;;;15.40;99.90;;;-143.50;100.00;58913.53;4996467;28;20451;-73
2021/07/05 03:05:28;;;;;;;0.70;0.67;;;15.50;99.90;;;-143.50;100.00;58913.53;4996559;28;20498;-73
2021/07/05 03:07:57;;;;;;;0.70;0.70;;;15.40;99.90;;;-143.50;100.00;58913.53;4996743;28;20452;-73
2021/07/05 03:10:28;;;;;;;0.70;0.60;;;15.50;99.90;;;-143.50;100.00;58913.53;4979295;28;20433;-73
2021/07/05 03:12:57;;;;;;;0.70;0.60;;;15.50;99.90;;;-143.50;100.00;58913.53;4994977;28;20437;-73
2021/07/05 03:15:26;;;;;;;0.70;0.60;;;15.40;99.90;;;-143.50;100.00;58913.53;4995828;28;20449;-73
2021/07/05 03:17:56;;;;;;;0.70;0.60;;;15.40;99.90;;;-143.50;100.00;58913.53;4993308;28;20496;-73
2021/07/05 03:20:27;;;;;;;0.70;0.60;;;15.40;99.90;;;-143.50;100.00;58913.53;4995157;28;20843;-73
2021/07/05 03:22:58;;;;;;;0.70;0.60;;;15.40;99.90;;;-143.50;100.00;58913.53;4995042;28;20512;-73
2021/07/05 03:25:28;;;;;;;0.70;0.60;;;15.50;99.90;;;-143.50;100.00;58913.53;4996123;28;20419;-73
2021/07/05 03:27:56;;;;;;;0.70;0.60;;;15.60;99.90;;;-143.50;100.00;58913.53;4996250;28;20526;-73
2021/07/05 03:30:28;;;;;;;0.70;0.70;;;15.60;99.90;;;-143.50;100.00;58913.53;4996192;28;20432;-73
2021/07/05 03:32:56;;;;;;;0.70;0.70;;;15.60;99.90;;;-143.50;100.00;58913.53;4993261;28;20466;-73
2021/07/05 03:35:25;;;;;;;0.70;0.60;;;15.70;99.90;;;-143.50;100.00;58913.53;4994454;28;20435;-73
2021/07/05 03:37:54;;;;;;;0.70;0.60;;;15.70;99.90;;;-143.50;100.00;58913.53;4996168;28;20804;-73
2021/07/05 03:40:24;;;;;;;0.70;0.60;;;15.70;99.90;;;-143.50;100.00;58913.53;4994711;28;20850;-73
2021/07/05 03:42:52;;;;;;;0.70;0.60;;;15.70;99.90;;;-143.50;100.00;58913.53;4995966;28;21012;-73
2021/07/05 03:45:23;;;;;;;0.70;0.60;;;15.70;99.90;;;-143.50;100.00;58913.53;4995955;28;20434;-73
2021/07/05 03:47:53;;;;;;;0.70;0.67;;;15.80;99.90;;;-143.50;100.00;58913.53;4994893;28;20462;-73
2021/07/05 03:50:21;;;;;;;0.70;0.70;;;15.80;99.90;;;-143.50;100.00;58913.53;4993205;28;20455;-72
2021/07/05 03:52:49;;;;;;;0.70;0.60;;;15.80;99.90;;;-143.50;100.00;58913.53;4995630;28;20502;-72
2021/07/05 03:55:20;;;;;;;0.70;0.60;;;15.90;99.90;;;-143.50;100.00;58913.53;4995726;28;20416;-72
2021/07/05 03:57:49;;;;;;;0.70;0.60;;;15.90;99.90;;;-143.50;100.00;58913.53;4995632;28;20795;-72
2021/07/05 04:00:20;;;;;;;0.70;0.70;;;15.90;99.90;;;-143.50;100.00;58913.53;4994369;28;20455;-73
2021/07/05 04:02:48;;;;;;;0.70;0.60;;;15.90;99.90;;;-143.50;100.00;58913.53;4995404;28;20470;-73
2021/07/05 04:05:17;;;;;;;0.70;0.60;;;16.00;99.90;;;-143.50;100.00;58913.53;4991468;28;20416;-73
2021/07/05 04:07:45;;;;;;;0.70;0.60;;;15.90;99.90;;;-143.50;100.00;58913.53;4994886;28;20481;-74
2021/07/05 04:10:15;;;;;;;0.70;0.60;;;15.90;99.90;;;-143.50;100.00;58913.53;4995798;28;20513;-75
2021/07/05 04:12:44;;;;;;;0.70;0.70;;;15.90;99.90;;;-143.50;100.00;58913.53;4994973;28;20466;-75
2021/07/05 04:15:13;;;;;;;0.70;0.60;;;15.80;99.90;;;-143.50;100.00;58913.53;4995242;28;20771;-76
2021/07/05 04:17:41;;;;;;;0.70;0.60;;;15.70;99.90;;;-143.50;100.00;58913.53;4994660;28;20537;-75
2021/07/05 04:20:14;;;;;;;0.70;0.60;;;15.60;99.90;;;-143.50;100.00;58913.53;4994368;28;20493;-75
2021/07/05 04:22:43;;;;;;;0.70;0.60;;;15.50;99.90;;;-143.50;100.00;58913.53;4977303;28;20493;-75
2021/07/05 04:25:14;;;;;;;0.70;0.60;;;15.50;99.90;;;-143.50;100.00;58913.53;4995211;28;20512;-75
2021/07/05 04:27:45;;;;;;;0.70;0.70;;;15.40;99.90;;;-143.50;100.00;58913.53;4977649;28;20439;-74
2021/07/05 04:30:15;;;;;;;0.70;0.60;;;15.40;99.90;;;-143.50;100.00;58913.53;4993433;28;20970;-76
2021/07/05 04:32:44;;;;;;;0.70;0.60;;;15.30;99.90;;;-143.50;100.00;58913.53;4995030;28;20407;-75
2021/07/05 04:35:15;;;;;;;0.70;0.60;;;15.20;99.90;;;-143.50;100.00;58913.53;4995208;28;20918;-74
2021/07/05 04:37:45;;;;;;;0.70;0.70;;;15.10;99.90;;;-143.50;100.00;58913.53;4994915;28;20435;-75
2021/07/05 04:40:16;;;;;;;0.70;0.60;;;15.00;99.90;;;-143.50;100.00;58913.53;4992632;28;20486;-74
2021/07/05 04:42:45;;;;;;;0.70;0.70;;;15.00;99.90;;;-143.50;100.00;58913.53;5021027;28;20460;-74
2021/07/05 04:45:15;;;;;;;0.70;0.70;;;14.90;99.90;;;-143.50;100.00;58913.53;4993199;28;20862;-74
2021/07/05 04:47:43;;;;;;;0.70;0.60;;;14.90;99.90;;;-143.50;100.00;58913.53;4993233;28;20412;-74
2021/07/05 04:50:14;;;;;;;0.70;0.63;;;14.80;99.90;;;-143.50;100.00;58913.53;4994591;28;20453;-74
2021/07/05 04:52:44;;;;;;;0.70;0.60;;;14.70;99.90;;;-143.50;100.00;58913.53;4992483;28;20545;-74
2021/07/05 04:55:15;;;;;;;0.70;0.60;;;14.70;99.90;;;-143.50;100.00;58913.53;4994340;28;20452;-74
2021/07/05 04:57:45;;;;;;;0.70;0.60;;;14.70;99.90;;;-143.50;100.00;58913.53;4992845;28;20846;-74
2021/07/05 05:00:17;;;;;;;0.70;0.70;;;14.70;99.90;;;-143.50;100.00;58913.53;4993218;28;20869;-74
2021/07/05 05:02:58;;;;;;;1.23;1.13;;;14.70;99.90;;;-143.50;100.00;58913.53;4993988;28;20415;-74
2021/07/05 05:05:27;;;;;;;0.70;0.70;;;14.70;99.90;;;-143.50;100.00;58913.53;4993728;28;20452;-74
2021/07/05 05:07:57;;;;;;;0.70;0.70;;;14.70;99.90;;;-143.50;100.00;58913.53;4993787;28;20829;-74
2021/07/05 05:10:26;;;;;;;0.70;0.70;;;14.70;99.90;;;-143.50;100.00;58913.53;4993798;28;20837;-74
2021/07/05 05:12:54;;;;;;;0.70;0.70;;;14.70;99.90;;;-143.50;100.00;58913.53;4976230;28;20478;-74
2021/07/05 05:15:21;;;;;;;0.70;0.60;;;14.70;99.90;;;-143.50;100.00;58913.53;4992884;28;20446;-75
2021/07/05 05:17:49;;;;;;;0.70;0.70;;;14.80;99.90;;;-143.50;100.00;58913.53;4992504;28;20440;-75
2021/07/05 05:20:19;;;;;;;0.70;0.70;;;14.80;99.90;;;-143.50;100.00;58913.53;4988213;28;20411;-75
2021/07/05 05:22:47;;;;;;;0.70;0.60;;;14.80;99.90;;;-143.50;100.00;58913.53;4973491;28;20974;-75
2021/07/05 05:25:19;;;;;;;0.70;0.63;;;14.80;99.90;;;-143.50;100.00;58913.53;4981507;28;21042;-75
2021/07/05 05:27:48;;;;;;;0.70;0.67;;;14.80;99.90;;;-143.50;100.00;58913.53;4998324;28;20475;-74
2021/07/05 05:30:23;;;;;;;0.70;0.60;;;14.80;99.90;;;-143.50;100.00;58913.53;4986689;28;20454;-75
2021/07/05 05:32:53;;;;;;;0.70;0.60;;;14.80;99.90;;;-143.50;100.00;58913.53;4974948;28;20432;-74
2021/07/05 05:35:23;;;;;;;0.70;0.67;;;14.70;99.90;;;-143.50;100.00;58913.53;4973006;28;20422;-75
2021/07/05 05:37:53;;;;;;;0.70;0.60;;;14.70;99.90;;;-143.50;100.00;58913.53;4986772;28;20446;-74
2021/07/05 05:40:22;;;;;;;0.70;0.60;;;14.70;99.90;;;-143.50;100.00;58913.53;4991123;28;20437;-75
2021/07/05 05:42:50;;;;;;;0.70;0.60;;;14.80;99.90;;;-143.50;100.00;58913.53;4987350;28;20456;-75
2021/07/05 05:45:18;;;;;;;0.70;0.70;;;14.80;99.90;;;-143.50;100.00;58913.53;4991461;28;20462;-75
2021/07/05 05:47:45;;;;;;;0.70;0.60;;;14.90;99.90;;;-143.50;100.00;58913.53;4992154;28;20861;-76
2021/07/05 05:50:15;;;;;;;0.70;0.60;;;15.00;99.90;;;-143.50;100.00;58913.53;4991741;28;20459;-75
2021/07/05 05:52:43;;;;;;;0.70;0.60;;;15.10;99.90;;;-143.50;100.00;58913.53;4992574;28;21007;-76
2021/07/05 05:55:12;;;;;;;0.80;0.80;;;15.20;99.90;;;-143.50;100.00;58913.53;4992632;28;20524;-75
2021/07/05 05:57:41;;;;;;;0.70;0.60;;;15.20;99.90;;;-143.50;100.00;58913.53;4991483;28;20444;-75
2021/07/05 06:00:15;;;;;;;0.70;0.70;;;15.30;99.90;;;-143.50;100.00;58913.53;4986020;28;20458;-75
2021/07/05 06:02:43;;;;;;;0.70;0.60;;;15.30;99.90;;;-143.50;100.00;58913.53;4992000;28;20450;-76
2021/07/05 06:05:12;;;;;;;0.70;0.63;;;15.50;99.90;;;-143.50;100.00;58913.53;4993314;28;20469;-75
2021/07/05 06:07:42;;;;;;;0.70;0.60;;;15.60;99.90;;;-143.50;100.00;58913.53;4992642;28;20521;-75
2021/07/05 06:10:10;;;;;;;0.70;0.70;;;15.60;99.90;;;-143.50;100.00;58913.53;4985252;28;20436;-75
2021/07/05 06:12:39;;;;;;;0.70;0.60;;;15.60;99.90;;;-143.50;100.00;58913.53;4989674;28;20476;-76
2021/07/05 06:15:11;;;;;;;0.70;0.60;;;15.70;99.90;;;-143.50;100.00;58913.53;4993345;28;20503;-75
2021/07/05 06:17:39;;;;;;;0.70;0.60;;;15.70;99.90;;;-143.50;100.00;58913.53;4988239;28;20450;-75
2021/07/05 06:20:08;;;;;;;0.70;0.60;;;15.70;99.90;;;-143.50;100.00;58913.53;4987285;28;20476;-75
2021/07/05 06:22:56;;;;;;;0.70;0.60;;;15.60;99.90;;;-143.50;100.00;58913.53;4991257;28;20469;-75
2021/07/05 06:25:25;;;;;;;0.70;0.60;;;15.50;99.90;;;-143.50;100.00;58913.53;4993595;28;20491;-75
2021/07/05 06:27:52;;;;;;;0.70;0.70;;;15.50;99.90;;;-143.50;100.00;58913.53;4992232;28;20465;-75
2021/07/05 06:30:23;;;;;;;0.70;0.60;;;15.50;99.90;;;-143.50;100.00;58913.53;4995622;28;20445;-75
2021/07/05 06:32:51;;;;;;;0.70;0.70;;;15.60;99.90;;;-143.50;100.00;58913.53;5012063;28;20424;-76
2021/07/05 06:35:18;;;;;;;0.70;0.60;;;15.90;99.90;;;-143.50;100.00;58913.53;4990044;28;20538;-75
2021/07/05 06:37:46;;;;;;;0.70;0.70;;;16.10;99.90;;;-143.50;100.00;58913.53;4996146;28;20459;-75
2021/07/05 06:40:17;;;;;;;0.70;0.67;;;16.30;99.90;;;-143.50;100.00;58913.53;5002044;28;20451;-75
2021/07/05 06:42:44;;;;;;;0.80;0.70;;;16.40;99.90;;;-143.50;100.00;58913.53;4984131;28;20498;-75
2021/07/05 06:45:12;;;;;;;0.70;0.70;;;16.20;99.90;;;-143.50;100.00;58913.53;4988901;28;20539;-75
2021/07/05 06:47:42;;;;;;;0.70;0.60;;;16.00;99.90;;;-143.50;100.00;58913.53;4995122;28;20495;-75
2021/07/05 06:50:11;;;;;;;0.70;0.60;;;16.00;99.90;;;-143.50;100.00;58913.53;4995330;28;21043;-75
2021/07/05 06:52:38;;;;;;;0.70;0.63;;;16.10;99.90;;;-143.50;100.00;58913.53;4995239;28;20433;-76
2021/07/05 06:55:06;;;;;;;0.70;0.60;;;16.10;99.90;;;-143.50;100.00;58913.53;4996275;28;20418;-75
2021/07/05 06:57:34;;;;;;;0.70;0.60;;;16.20;99.90;;;-143.50;100.00;58913.53;5028620;28;20532;-74
2021/07/05 07:00:09;;;;;;;0.70;0.60;;;16.30;99.90;;;-143.50;100.00;58913.53;4994741;28;20461;-75
2021/07/05 07:02:38;;;;;;;0.70;0.60;;;16.20;99.90;;;-143.50;100.00;58913.53;4993525;28;20532;-75
2021/07/05 07:05:11;;;;;;;0.70;0.60;;;16.30;99.90;;;-143.50;100.00;58913.53;4988250;28;20476;-75
2021/07/05 07:07:39;;;;;;;0.70;0.60;;;16.40;99.90;;;-143.50;100.00;58913.53;4988196;28;20933;-73
2021/07/05 07:10:11;;;;;;;0.70;0.60;;;16.50;99.90;;;-143.50;100.00;58913.53;4989857;28;20749;-74
2021/07/05 07:12:40;;;;;;;0.70;0.60;;;16.60;99.90;;;-143.50;100.00;58913.53;4995572;28;20434;-73
2021/07/05 07:15:10;;;;;;;0.80;0.70;;;16.70;99.90;;;-143.50;100.00;58913.53;4994082;28;20946;-73
2021/07/05 07:17:47;;;;;;;0.70;0.60;;;16.70;99.90;;;-143.50;100.00;58913.53;4993864;28;20439;-73
2021/07/05 07:20:18;;;;;;;0.70;0.60;;;16.90;99.90;;;-143.50;100.00;58913.53;4978756;28;20953;-73
2021/07/05 07:22:46;;;;;;;0.70;0.60;;;17.20;99.90;;;-143.50;100.00;58913.53;4994904;28;20463;-74
2021/07/05 07:25:15;;;;;;;0.70;0.60;;;17.30;99.90;;;-143.50;100.00;58913.53;4993280;28;20827;-74
2021/07/05 07:27:43;;;;;;;0.80;0.70;;;17.40;99.90;;;-143.50;100.00;58913.53;4989816;28;20439;-73
2021/07/05 07:30:14;;;;;;;0.70;0.70;;;17.50;99.90;;;-143.50;100.00;58913.53;4995536;28;20936;-74
2021/07/05 07:32:44;;;;;;;0.70;0.60;;;17.50;99.90;;;-143.50;100.00;58913.53;4983488;28;20447;-74
2021/07/05 07:35:16;;;;;;;0.70;0.60;;;17.40;99.90;;;-143.50;100.00;58913.53;5026331;28;20401;-73
2021/07/05 07:37:48;;;;;;;0.70;0.60;;;17.50;99.90;;;-143.50;100.00;58913.53;4989006;28;20561;-74
2021/07/05 07:40:21;;;;;;;0.70;0.60;;;17.50;99.90;;;-143.50;100.00;58913.53;4994518;28;20406;-73
2021/07/05 07:42:49;;;;;;;0.70;0.60;;;17.70;99.90;;;-143.50;100.00;58913.53;4995472;28;20409;-74
2021/07/05 07:45:19;;;;;;;0.80;0.70;;;17.90;99.90;;;-143.50;100.00;58913.53;4993794;28;20454;-73
2021/07/05 07:47:48;;;;;;;0.70;0.60;;;18.10;99.90;;;-143.50;100.00;58913.53;4988362;28;20929;-73
2021/07/05 07:50:18;;;;;;;0.70;0.60;;;18.60;99.90;;;-143.50;100.00;58913.53;4994686;28;20421;-74
2021/07/05 07:52:47;;;;;;;0.70;0.60;;;18.80;99.90;;;-143.50;100.00;58913.53;4994559;28;20425;-74
2021/07/05 07:55:17;;;;;;;0.70;0.60;;;18.90;99.90;;;-143.50;100.00;58913.53;4994722;28;20423;-73
2021/07/05 07:57:45;;;;;;;0.70;0.60;;;19.00;99.90;;;-143.50;100.00;58913.53;4983056;28;20455;-73
2021/07/05 08:00:15;;;;;;;0.70;0.60;;;19.00;99.90;;;-143.50;100.00;58913.53;4992737;28;20516;-73
2021/07/05 08:02:44;;;;;;;0.70;0.60;;;19.00;99.90;;;-143.50;100.00;58913.53;4987431;28;20431;-74
2021/07/05 08:05:15;;;;;;;0.70;0.60;;;19.10;99.90;;;-143.50;100.00;58913.53;4984605;28;20463;-74
2021/07/05 08:07:47;;;;;;;0.70;0.60;;;19.20;99.90;;;-143.50;100.00;58913.53;4990922;28;20482;-74
2021/07/05 08:10:18;;;;;;;0.80;0.70;;;19.40;99.90;;;-143.50;100.00;58913.53;5007153;28;20929;-74
2021/07/05 08:12:46;;;;;;;0.70;0.60;;;19.30;99.90;;;-143.50;100.00;58913.53;4994459;28;20466;-76
2021/07/05 08:15:16;;;;;;;0.70;0.60;;;19.20;99.90;;;-143.50;100.00;58913.53;5027679;28;20489;-76
2021/07/05 08:17:48;;;;;;;0.80;0.70;;;19.00;99.90;;;-143.50;100.00;58913.53;4995244;28;20418;-75
2021/07/05 08:20:22;;;;;;;0.80;0.70;;;18.90;99.90;;;-143.50;100.00;58913.53;4994910;28;20496;-74
2021/07/05 08:22:55;;;;;;;0.70;0.60;;;19.00;99.90;;;-143.50;100.00;58913.53;5026162;28;20470;-75
2021/07/05 08:25:26;;;;;;;0.70;0.60;;;19.00;99.90;;;-143.50;100.00;58913.53;4994512;28;20433;-75
2021/07/05 08:27:54;;;;;;;0.70;0.60;;;18.90;99.90;;;-143.50;100.00;58913.53;4994213;28;20464;-75
2021/07/05 08:30:23;;;;;;;0.80;0.70;;;19.00;99.90;;;-143.50;100.00;58913.53;4994125;28;20473;-75
2021/07/05 08:32:54;;;;;;;0.70;0.70;;;19.00;99.90;;;-143.50;100.00;58913.53;4994816;28;20903;-74
2021/07/05 08:35:24;;;;;;;0.80;0.70;;;19.00;99.90;;;-143.50;100.00;58913.53;4990731;28;20409;-76
2021/07/05 08:37:53;;;;;;;0.70;0.70;;;18.90;99.90;;;-143.50;100.00;58913.53;4994167;28;20420;-75
2021/07/05 08:40:21;;;;;;;0.70;0.60;;;18.80;99.90;;;-143.50;100.00;58913.53;4994262;28;20525;-76
2021/07/05 08:42:52;;;;;;;0.70;0.70;;;18.80;99.90;;;-143.50;100.00;58913.53;4992955;28;20471;-75
2021/07/05 08:45:21;;;;;;;0.70;0.60;;;18.70;99.90;;;-143.50;100.00;58913.53;4966813;28;20511;-75
2021/07/05 08:47:52;;;;;;;0.70;0.60;;;18.80;99.90;;;-143.50;100.00;58913.53;4988546;28;20902;-75
2021/07/05 08:50:23;;;;;;;0.70;0.60;;;18.90;99.90;;;-143.50;100.00;58913.53;5010375;28;20784;-75
2021/07/05 08:52:53;;;;;;;0.80;0.70;;;18.90;99.90;;;-143.50;100.00;58913.53;4992818;28;20474;-75
2021/07/05 08:55:24;;;;;;;0.70;0.60;;;18.90;99.90;;;-143.50;100.00;58913.53;4994397;28;20390;-75
2021/07/05 08:57:52;;;;;;;0.70;0.60;;;18.90;99.90;;;-143.50;100.00;58913.53;4993778;28;20421;-74
2021/07/05 09:00:22;;;;;;;0.80;0.70;;;19.10;99.90;;;-143.50;100.00;58913.53;5008781;28;20537;-75
2021/07/05 09:02:51;;;;;;;0.70;0.60;;;19.10;99.90;;;-143.50;100.00;58913.53;4988422;28;20483;-75
2021/07/05 09:05:19;;;;;;;0.70;0.60;;;19.30;99.90;;;-143.50;100.00;58913.53;4979605;28;20429;-75
2021/07/05 09:08:04;;;;;;;0.70;0.60;;;19.50;99.90;;;-143.50;100.00;58913.53;4992632;28;20972;-75
2021/07/05 09:10:47;;;;;;;0.70;0.60;;;19.80;99.90;;;-143.50;100.00;58913.53;4994246;28;20429;-75
2021/07/05 09:13:19;;;;;;;0.70;0.60;;;20.10;99.90;;;-143.50;100.00;58913.53;4992215;28;20934;-75
2021/07/05 09:15:49;;;;;;;0.70;0.60;;;20.10;99.90;;;-143.50;100.00;58913.53;4993158;28;20453;-75
2021/07/05 09:18:30;;;;;;;0.80;0.77;;;20.00;99.90;;;-143.50;100.00;58913.53;4988843;28;20533;-74
2021/07/05 09:21:12;;;;;;;0.70;0.60;;;19.80;99.90;;;-143.50;100.00;58913.53;4992950;28;20414;-75
2021/07/05 09:24:01;;;;;;;0.70;0.60;;;19.70;99.90;;;-143.50;100.00;58913.53;4989780;28;20456;-74
2021/07/05 09:26:35;;;;;;;0.70;0.60;;;19.50;99.90;;;-143.50;100.00;58913.53;4978257;28;20482;-75
2021/07/05 09:29:07;;;;;;;0.70;0.60;;;19.30;99.90;;;-143.50;100.00;58913.53;4992615;28;20447;-75
2021/07/05 09:31:41;;;;;;;0.70;0.60;;;19.40;99.90;;;-143.50;100.00;58913.53;4991877;28;20914;-74
2021/07/05 09:34:19;;;;;;;0.80;0.70;;;19.70;99.90;;;-143.50;100.00;58913.53;5008975;28;20525;-74
2021/07/05 09:36:52;;;;;;;0.80;0.70;;;20.10;99.90;;;-143.50;100.00;58913.53;4991961;28;20439;-74
2021/07/05 09:39:24;;;;;;;0.70;0.60;;;20.30;99.90;;;-143.50;100.00;58913.53;5008877;28;20457;-74
2021/07/05 09:41:55;;;;;;;0.70;0.60;;;20.40;99.90;;;-143.50;100.00;58913.53;5009288;28;20451;-74
2021/07/05 09:44:25;;;;;;;0.80;0.70;;;20.30;99.90;;;-143.50;100.00;58913.53;4992042;28;20430;-74
2021/07/05 09:46:58;;;;;;;0.70;0.60;;;20.50;99.90;;;-143.50;100.00;58913.53;4994617;28;20465;-73
2021/07/05 09:49:28;;;;;;;0.70;0.60;;;20.70;99.90;;;-143.50;100.00;58913.53;4991790;28;20441;-73
2021/07/05 09:52:23;;;;;;;0.70;0.60;;;20.70;99.90;;;-143.50;100.00;58913.53;4987337;28;20462;-73
2021/07/05 09:54:56;;;;;;;0.70;0.60;;;20.80;99.90;;;-143.50;100.00;58913.53;4974206;28;20442;-72
2021/07/05 09:57:39;;;;;;;0.70;0.50;;;21.30;99.90;;;-143.50;100.00;58913.53;4986993;28;20434;-73
2021/07/05 10:00:20;;;;;;;0.70;0.60;;;21.70;99.90;;;-143.50;100.00;58913.53;4986866;28;20961;-73
2021/07/05 10:02:58;;;;;;;0.70;0.60;;;21.60;99.90;;;-143.50;100.00;58913.53;4991738;28;20846;-73
2021/07/05 10:05:31;;;;;;;0.70;0.60;;;21.50;99.90;;;-143.50;100.00;58913.53;4979171;28;20841;-73
2021/07/05 10:08:06;;;;;;;0.70;0.60;;;21.50;99.90;;;-143.50;100.00;58913.53;4977114;28;20439;-73
2021/07/05 10:10:38;;;;;;;0.70;0.60;;;21.50;99.90;;;-143.50;100.00;58913.53;4978445;28;20419;-72
2021/07/05 10:13:09;;;;;;;0.70;0.60;;;21.50;99.90;;;-143.50;100.00;58913.53;5010892;28;20839;-72